Club Harmony — V7XN2 — position and weather

sailwx.info

Track history (hours):
 
Tides and Currents Weather Stations Pressure Air Temp Water Temp Dewpoint Dewpoint Depression Visibility Wind Speed Wind Dir Waves Ship Positions

Club Harmony

Last reported at 2017-Dec-02 13:54 UTC. Time now 2017-Dec-17 10:00 UTC.
Position N 36°20' E 014°49'.
Warning: this ship's position is 14 days out of date.

Length 176 m; draft 7.9 m.

Type: Passenger vessel. MMSI: 538004519.

Date/timePositionNaut miles runAvg speedWind from/ knotsBaromVisibWave heightAir tempDewpointWater temp
2017-Dec-02 13:54N 36°20' E 014°49'513.3
2017-Dec-02 13:30N 36°21' E 014°43'714.2
2017-Dec-02 13:00N 36°24' E 014°34'613.1
2017-Dec-02 12:30N 36°26' E 014°26'713.7
2017-Dec-02 12:00N 36°27' E 014°18'713.6
2017-Dec-02 11:30N 36°29' E 014°10'  
2017-Nov-28 11:13N 37°58' W 009°59'312.2
2017-Nov-28 11:00N 38°01' W 009°60'612.3
2017-Nov-28 10:30N 38°07' W 010°01'612.1
2017-Nov-28 10:00N 38°13' W 010°03'712.3
2017-Nov-28 09:28N 38°19' W 010°05'912.4
2017-Nov-28 08:44N 38°28' W 010°08'312.5
2017-Nov-28 08:28N 38°31' W 010°09'1412.4
2017-Nov-28 07:22N 38°45' W 010°12'412.4
2017-Nov-28 07:00N 38°49' W 010°12'612.4
2017-Nov-28 06:31N 38°55' W 010°13'612.1
2017-Nov-28 06:01N 39°01' W 010°13'612.6
2017-Nov-28 05:30N 39°08' W 010°12'1312.6
2017-Nov-28 04:28N 39°21' W 010°12'  
2017-Nov-25 19:13N 49°48' W 003°26'312.5
2017-Nov-25 19:00N 49°50' W 003°23'812.8
2017-Nov-25 18:24N 49°54' W 003°12'513.1
2017-Nov-25 18:00N 49°56' W 003°06'1713.2
2017-Nov-25 16:45N 50°02' W 002°41'513.1
2017-Nov-25 16:25N 50°03' W 002°35'513.1
2017-Nov-25 16:00N 50°05' W 002°27'612.8
2017-Nov-25 15:30N 50°07' W 002°17'912.1
2017-Nov-25 14:48N 50°08' W 002°04'411.7
2017-Nov-25 14:28N 50°10' W 001°58'511.3
2017-Nov-25 13:59N 50°11' W 001°50'510.9
2017-Nov-25 13:30N 50°12' W 001°42'510.6
2017-Nov-25 13:01N 50°14' W 001°34'510.1
2017-Nov-25 12:30N 50°15' W 001°27'5 9.9
2017-Nov-25 12:00N 50°16' W 001°19'5 9.8
2017-Nov-25 11:29N 50°18' W 001°12'1610.5
2017-Nov-25 09:59N 50°22' W 000°48'1712.1
2017-Nov-25 08:33N 50°27' W 000°22'112.8
2017-Nov-25 08:31N 50°27' W 000°21'713.0
2017-Nov-25 08:00N 50°28' W 000°11'713.2
2017-Nov-25 07:30N 50°30' W 000°01'713.4
2017-Nov-25 07:00N 50°32' E 000°09'713.5
2017-Nov-25 06:30N 50°34' E 000°20'713.4
2017-Nov-25 06:00N 50°36' E 000°30'713.2
2017-Nov-25 05:30N 50°39' E 000°39'613.0
2017-Nov-25 05:01N 50°42' E 000°48'612.6
2017-Nov-25 04:30N 50°45' E 000°56'612.2
2017-Nov-25 04:01N 50°48' E 001°05'611.7
2017-Nov-25 03:30N 50°52' E 001°12'611.2
2017-Nov-25 02:57N 50°56' E 001°20'511.4
2017-Nov-25 02:30N 50°60' E 001°24'612.3
2017-Nov-25 02:00N 51°04' E 001°31'612.7
2017-Nov-25 01:30N 51°09' E 001°38'713.3
2017-Nov-25 01:00N 51°13' E 001°46'714.1
2017-Nov-25 00:30N 51°19' E 001°52'714.4
2017-Nov-25 00:00N 51°25' E 001°59'714.3
2017-Nov-24 23:30N 51°31' E 002°05'1714.2
2017-Nov-24 22:18N 51°44' E 002°24'4711.8
2017-Nov-24 18:20N 52°00' E 003°35'411.2
2017-Nov-24 18:00N 52°01' E 003°41'510.6
2017-Nov-24 17:30N 52°01' E 003°49'4 7.5
2017-Nov-24 17:01N 52°02' E 003°55'4 7.7
2017-Nov-24 16:31N 51°60' E 004°01'4 8.2
2017-Nov-24 16:00N 51°58' E 004°07'3 5.6
2017-Nov-24 15:30N 51°56' E 004°11'2 3.6
2017-Nov-24 15:01N 51°55' E 004°12'0 0.0
2017-Nov-24 14:30N 51°55' E 004°12'0 0.0
2017-Nov-24 14:00N 51°55' E 004°12'0 0.0
2017-Nov-24 13:24N 51°55' E 004°12'0 0.0
2017-Nov-24 13:00N 51°55' E 004°12'0 0.0
2017-Nov-24 12:24N 51°55' E 004°12'0 0.0
2017-Nov-24 11:54N 51°55' E 004°12'0 0.0
2017-Nov-24 11:21N 51°55' E 004°12'0 0.0
2017-Nov-24 11:00N 51°55' E 004°12'0 0.0
2017-Nov-24 10:18N 51°55' E 004°12'0 0.0
2017-Nov-24 09:57N 51°55' E 004°12'0 0.0
2017-Nov-24 09:27N 51°55' E 004°12'0 0.0
2017-Nov-24 09:00N 51°55' E 004°12'0 0.0
2017-Nov-24 08:30N 51°55' E 004°12'0 0.0
2017-Nov-24 08:00N 51°55' E 004°12'0 0.0
2017-Nov-24 07:30N 51°55' E 004°12'0 0.0
2017-Nov-24 06:57N 51°55' E 004°12'0 0.0
2017-Nov-24 06:30N 51°55' E 004°12'0 0.0
2017-Nov-24 06:00N 51°55' E 004°12'0 0.0
2017-Nov-24 05:30N 51°55' E 004°12'0 0.0
2017-Nov-24 05:00N 51°55' E 004°12'0 0.0
2017-Nov-24 04:18N 51°55' E 004°12'0 0.0
2017-Nov-24 04:00N 51°55' E 004°12'0 0.0
2017-Nov-24 03:30N 51°55' E 004°12'0 0.0
2017-Nov-24 03:00N 51°55' E 004°12'0 0.0
2017-Nov-24 02:30N 51°55' E 004°12'0 0.0
2017-Nov-24 02:00N 51°55' E 004°12'0 0.0
2017-Nov-24 01:30N 51°55' E 004°12'0 0.0
2017-Nov-24 00:54N 51°55' E 004°12'0 0.0
2017-Nov-24 00:30N 51°55' E 004°12'0 0.0
2017-Nov-24 00:00N 51°55' E 004°12'0 0.0
2017-Nov-23 23:21N 51°55' E 004°12'0 0.0
2017-Nov-23 23:00N 51°55' E 004°12'0 0.0
2017-Nov-23 22:27N 51°55' E 004°12'0 0.0
2017-Nov-23 22:00N 51°55' E 004°12'0 0.0
2017-Nov-23 21:26N 51°55' E 004°12'0 0.0
2017-Nov-23 20:56N 51°55' E 004°12'0 0.0
2017-Nov-23 20:26N 51°55' E 004°12'0 0.0
2017-Nov-23 19:59N 51°55' E 004°12'0 0.0
2017-Nov-23 19:29N 51°55' E 004°12'0 0.0
2017-Nov-23 18:59N 51°55' E 004°12'0 0.0
2017-Nov-23 18:26N 51°55' E 004°12'0 0.0
2017-Nov-23 17:59N 51°55' E 004°12'0 0.0
2017-Nov-23 17:26N 51°55' E 004°12'0 0.0
2017-Nov-23 16:56N 51°55' E 004°12'0 0.0
2017-Nov-23 16:29N 51°55' E 004°12'0 0.0
2017-Nov-23 15:56N 51°55' E 004°12'0 0.0
2017-Nov-23 15:29N 51°55' E 004°12'0 0.0
2017-Nov-23 14:50N 51°55' E 004°12'0 0.0
2017-Nov-23 14:23N 51°55' E 004°12'0 0.0
2017-Nov-23 13:59N 51°55' E 004°12'0 0.0
2017-Nov-23 13:29N 51°55' E 004°12'0 0.0
2017-Nov-23 12:59N 51°55' E 004°12'0 0.0
2017-Nov-23 12:29N 51°55' E 004°12'0 0.0
2017-Nov-23 11:59N 51°55' E 004°12'0 0.0
2017-Nov-23 11:29N 51°55' E 004°12'0 0.0
2017-Nov-23 10:59N 51°55' E 004°12'0 0.0
2017-Nov-23 10:29N 51°55' E 004°12'0 0.0
2017-Nov-23 09:59N 51°55' E 004°12'0 0.0
2017-Nov-23 09:29N 51°55' E 004°12'0 0.0
2017-Nov-23 08:59N 51°55' E 004°12'0 0.0
2017-Nov-23 08:26N 51°55' E 004°12'0 0.0
2017-Nov-23 07:56N 51°55' E 004°12'0 0.0
2017-Nov-23 07:29N 51°55' E 004°12'0 0.0
2017-Nov-23 06:56N 51°55' E 004°12'0 0.0
2017-Nov-23 06:26N 51°55' E 004°12'0 0.0
2017-Nov-23 05:59N 51°55' E 004°12'0 0.0
2017-Nov-23 05:27N 51°55' E 004°12'0 0.0
2017-Nov-23 04:57N 51°55' E 004°12'0 0.0
2017-Nov-23 04:30N 51°55' E 004°12'0 0.0
2017-Nov-23 03:57N 51°55' E 004°12'0 0.0
2017-Nov-23 03:30N 51°55' E 004°12'0 0.0
2017-Nov-23 03:00N 51°55' E 004°12'0 0.0
2017-Nov-23 02:30N 51°55' E 004°12'0 0.0
2017-Nov-23 02:00N 51°55' E 004°12'0 0.0
2017-Nov-23 01:27N 51°55' E 004°12'0 0.0
2017-Nov-23 01:00N 51°55' E 004°12'0 0.0
2017-Nov-23 00:30N 51°55' E 004°12'0 0.0
2017-Nov-22 23:57N 51°55' E 004°12'0 0.0
2017-Nov-22 23:30N 51°55' E 004°12'0 0.0
2017-Nov-22 22:54N 51°55' E 004°12'0 0.0
2017-Nov-22 22:30N 51°55' E 004°12'0 0.0
2017-Nov-22 22:00N 51°55' E 004°12'0 0.0
2017-Nov-22 21:30N 51°55' E 004°12'0 0.0
2017-Nov-22 21:00N 51°55' E 004°12'0 0.0
2017-Nov-22 20:30N 51°55' E 004°12'0 0.0
2017-Nov-22 20:00N 51°55' E 004°12'0 0.0
2017-Nov-22 19:30N 51°55' E 004°12'  
Track history (hours):
 
Tides and Currents Weather Stations Pressure Air Temp Water Temp Dewpoint Dewpoint Depression Visibility Wind Speed Wind Dir Waves Ship Positions

Club Harmony

Last reported at 2017-Dec-02 13:54 UTC. Time now 2017-Dec-17 10:00 UTC.
Position N 36°20' E 014°49'.
Warning: this ship's position is 14 days out of date.

Length 176 m; draft 7.9 m.

Type: Passenger vessel. MMSI: 538004519.

Date/timePositionNaut miles runAvg speedWind from/ knotsBaromVisibWave heightAir tempDewpointWater temp
2017-Dec-02 13:54N 36°20' E 014°49'513.3
2017-Dec-02 13:30N 36°21' E 014°43'714.2
2017-Dec-02 13:00N 36°24' E 014°34'613.1
2017-Dec-02 12:30N 36°26' E 014°26'713.7
2017-Dec-02 12:00N 36°27' E 014°18'713.6
2017-Dec-02 11:30N 36°29' E 014°10'  
2017-Nov-28 11:13N 37°58' W 009°59'312.2
2017-Nov-28 11:00N 38°01' W 009°60'612.3
2017-Nov-28 10:30N 38°07' W 010°01'612.1
2017-Nov-28 10:00N 38°13' W 010°03'712.3
2017-Nov-28 09:28N 38°19' W 010°05'912.4
2017-Nov-28 08:44N 38°28' W 010°08'312.5
2017-Nov-28 08:28N 38°31' W 010°09'1412.4
2017-Nov-28 07:22N 38°45' W 010°12'412.4
2017-Nov-28 07:00N 38°49' W 010°12'612.4
2017-Nov-28 06:31N 38°55' W 010°13'612.1
2017-Nov-28 06:01N 39°01' W 010°13'612.6
2017-Nov-28 05:30N 39°08' W 010°12'1312.6
2017-Nov-28 04:28N 39°21' W 010°12'  
2017-Nov-25 19:13N 49°48' W 003°26'312.5
2017-Nov-25 19:00N 49°50' W 003°23'812.8
2017-Nov-25 18:24N 49°54' W 003°12'513.1
2017-Nov-25 18:00N 49°56' W 003°06'1713.2
2017-Nov-25 16:45N 50°02' W 002°41'513.1
2017-Nov-25 16:25N 50°03' W 002°35'513.1
2017-Nov-25 16:00N 50°05' W 002°27'612.8
2017-Nov-25 15:30N 50°07' W 002°17'912.1
2017-Nov-25 14:48N 50°08' W 002°04'411.7
2017-Nov-25 14:28N 50°10' W 001°58'511.3
2017-Nov-25 13:59N 50°11' W 001°50'510.9
2017-Nov-25 13:30N 50°12' W 001°42'510.6
2017-Nov-25 13:01N 50°14' W 001°34'510.1
2017-Nov-25 12:30N 50°15' W 001°27'5 9.9
2017-Nov-25 12:00N 50°16' W 001°19'5 9.8
2017-Nov-25 11:29N 50°18' W 001°12'1610.5
2017-Nov-25 09:59N 50°22' W 000°48'1712.1
2017-Nov-25 08:33N 50°27' W 000°22'112.8
2017-Nov-25 08:31N 50°27' W 000°21'713.0
2017-Nov-25 08:00N 50°28' W 000°11'713.2
2017-Nov-25 07:30N 50°30' W 000°01'713.4
2017-Nov-25 07:00N 50°32' E 000°09'713.5
2017-Nov-25 06:30N 50°34' E 000°20'713.4
2017-Nov-25 06:00N 50°36' E 000°30'713.2
2017-Nov-25 05:30N 50°39' E 000°39'613.0
2017-Nov-25 05:01N 50°42' E 000°48'612.6
2017-Nov-25 04:30N 50°45' E 000°56'612.2
2017-Nov-25 04:01N 50°48' E 001°05'611.7
2017-Nov-25 03:30N 50°52' E 001°12'611.2
2017-Nov-25 02:57N 50°56' E 001°20'511.4
2017-Nov-25 02:30N 50°60' E 001°24'612.3
2017-Nov-25 02:00N 51°04' E 001°31'612.7
2017-Nov-25 01:30N 51°09' E 001°38'713.3
2017-Nov-25 01:00N 51°13' E 001°46'714.1
2017-Nov-25 00:30N 51°19' E 001°52'714.4
2017-Nov-25 00:00N 51°25' E 001°59'714.3
2017-Nov-24 23:30N 51°31' E 002°05'1714.2
2017-Nov-24 22:18N 51°44' E 002°24'4711.8
2017-Nov-24 18:20N 52°00' E 003°35'411.2
2017-Nov-24 18:00N 52°01' E 003°41'510.6
2017-Nov-24 17:30N 52°01' E 003°49'4 7.5
2017-Nov-24 17:01N 52°02' E 003°55'4 7.7
2017-Nov-24 16:31N 51°60' E 004°01'4 8.2
2017-Nov-24 16:00N 51°58' E 004°07'3 5.6
2017-Nov-24 15:30N 51°56' E 004°11'2 3.6
2017-Nov-24 15:01N 51°55' E 004°12'0 0.0
2017-Nov-24 14:30N 51°55' E 004°12'0 0.0
2017-Nov-24 14:00N 51°55' E 004°12'0 0.0
2017-Nov-24 13:24N 51°55' E 004°12'0 0.0
2017-Nov-24 13:00N 51°55' E 004°12'0 0.0
2017-Nov-24 12:24N 51°55' E 004°12'0 0.0
2017-Nov-24 11:54N 51°55' E 004°12'0 0.0
2017-Nov-24 11:21N 51°55' E 004°12'0 0.0
2017-Nov-24 11:00N 51°55' E 004°12'0 0.0
2017-Nov-24 10:18N 51°55' E 004°12'0 0.0
2017-Nov-24 09:57N 51°55' E 004°12'0 0.0
2017-Nov-24 09:27N 51°55' E 004°12'0 0.0
2017-Nov-24 09:00N 51°55' E 004°12'0 0.0
2017-Nov-24 08:30N 51°55' E 004°12'0 0.0
2017-Nov-24 08:00N 51°55' E 004°12'0 0.0
2017-Nov-24 07:30N 51°55' E 004°12'0 0.0
2017-Nov-24 06:57N 51°55' E 004°12'0 0.0
2017-Nov-24 06:30N 51°55' E 004°12'0 0.0
2017-Nov-24 06:00N 51°55' E 004°12'0 0.0
2017-Nov-24 05:30N 51°55' E 004°12'0 0.0
2017-Nov-24 05:00N 51°55' E 004°12'0 0.0
2017-Nov-24 04:18N 51°55' E 004°12'0 0.0
2017-Nov-24 04:00N 51°55' E 004°12'0 0.0
2017-Nov-24 03:30N 51°55' E 004°12'0 0.0
2017-Nov-24 03:00N 51°55' E 004°12'0 0.0
2017-Nov-24 02:30N 51°55' E 004°12'0 0.0
2017-Nov-24 02:00N 51°55' E 004°12'0 0.0
2017-Nov-24 01:30N 51°55' E 004°12'0 0.0
2017-Nov-24 00:54N 51°55' E 004°12'0 0.0
2017-Nov-24 00:30N 51°55' E 004°12'0 0.0
2017-Nov-24 00:00N 51°55' E 004°12'0 0.0
2017-Nov-23 23:21N 51°55' E 004°12'0 0.0
2017-Nov-23 23:00N 51°55' E 004°12'0 0.0
2017-Nov-23 22:27N 51°55' E 004°12'0 0.0
2017-Nov-23 22:00N 51°55' E 004°12'0 0.0
2017-Nov-23 21:26N 51°55' E 004°12'0 0.0
2017-Nov-23 20:56N 51°55' E 004°12'0 0.0
2017-Nov-23 20:26N 51°55' E 004°12'0 0.0
2017-Nov-23 19:59N 51°55' E 004°12'0 0.0
2017-Nov-23 19:29N 51°55' E 004°12'0 0.0
2017-Nov-23 18:59N 51°55' E 004°12'0 0.0
2017-Nov-23 18:26N 51°55' E 004°12'0 0.0
2017-Nov-23 17:59N 51°55' E 004°12'0 0.0
2017-Nov-23 17:26N 51°55' E 004°12'0 0.0
2017-Nov-23 16:56N 51°55' E 004°12'0 0.0
2017-Nov-23 16:29N 51°55' E 004°12'0 0.0
2017-Nov-23 15:56N 51°55' E 004°12'0 0.0
2017-Nov-23 15:29N 51°55' E 004°12'0 0.0
2017-Nov-23 14:50N 51°55' E 004°12'0 0.0
2017-Nov-23 14:23N 51°55' E 004°12'0 0.0
2017-Nov-23 13:59N 51°55' E 004°12'0 0.0
2017-Nov-23 13:29N 51°55' E 004°12'0 0.0
2017-Nov-23 12:59N 51°55' E 004°12'0 0.0
2017-Nov-23 12:29N 51°55' E 004°12'0 0.0
2017-Nov-23 11:59N 51°55' E 004°12'0 0.0
2017-Nov-23 11:29N 51°55' E 004°12'0 0.0
2017-Nov-23 10:59N 51°55' E 004°12'0 0.0
2017-Nov-23 10:29N 51°55' E 004°12'0 0.0
2017-Nov-23 09:59N 51°55' E 004°12'0 0.0
2017-Nov-23 09:29N 51°55' E 004°12'0 0.0
2017-Nov-23 08:59N 51°55' E 004°12'0 0.0
2017-Nov-23 08:26N 51°55' E 004°12'0 0.0
2017-Nov-23 07:56N 51°55' E 004°12'0 0.0
2017-Nov-23 07:29N 51°55' E 004°12'0 0.0
2017-Nov-23 06:56N 51°55' E 004°12'0 0.0
2017-Nov-23 06:26N 51°55' E 004°12'0 0.0
2017-Nov-23 05:59N 51°55' E 004°12'0 0.0
2017-Nov-23 05:27N 51°55' E 004°12'0 0.0
2017-Nov-23 04:57N 51°55' E 004°12'0 0.0
2017-Nov-23 04:30N 51°55' E 004°12'0 0.0
2017-Nov-23 03:57N 51°55' E 004°12'0 0.0
2017-Nov-23 03:30N 51°55' E 004°12'0 0.0
2017-Nov-23 03:00N 51°55' E 004°12'0 0.0
2017-Nov-23 02:30N 51°55' E 004°12'0 0.0
2017-Nov-23 02:00N 51°55' E 004°12'0 0.0
2017-Nov-23 01:27N 51°55' E 004°12'0 0.0
2017-Nov-23 01:00N 51°55' E 004°12'0 0.0
2017-Nov-23 00:30N 51°55' E 004°12'0 0.0
2017-Nov-22 23:57N 51°55' E 004°12'0 0.0
2017-Nov-22 23:30N 51°55' E 004°12'0 0.0
2017-Nov-22 22:54N 51°55' E 004°12'0 0.0
2017-Nov-22 22:30N 51°55' E 004°12'0 0.0
2017-Nov-22 22:00N 51°55' E 004°12'0 0.0
2017-Nov-22 21:30N 51°55' E 004°12'0 0.0
2017-Nov-22 21:00N 51°55' E 004°12'0 0.0
2017-Nov-22 20:30N 51°55' E 004°12'0 0.0
2017-Nov-22 20:00N 51°55' E 004°12'0 0.0
2017-Nov-22 19:30N 51°55' E 004°12'  

Dump ship's entire track history